Kathleen, Georgia
Current Conditions -  °F | °C
As of 5:35 AM on Thursday 27 Nov 2014 (Local Time) from KPXE Reporting Station
Clear Clear  
Wind Chill: 45°   Ceiling: Unl
Heat Index: 45°   Visibility: 10mi
Dew Point: 33°   Wind: 3mph
Humidity: 64%   Direction: 270°W
Pressure: 30.19"   Gusts: NA
Location:  32.5°N, 83.61°W
Report Text: KPXE 271035Z AUTO 27003KT 10SM CLR 07/01 A3019 RMK AO2 T00700005
Loading
Personal Weather Stations






























Interactive Weather Map New forecast layout! Learn more

10-Day Weather Forecast

Advertisements
Track Severe Weather on mobile